createdAt,value
2019-04-14T00:02:33.642Z,17.20
2019-04-14T00:07:36.943Z,16.45
2019-04-14T00:12:39.080Z,17.87
2019-04-14T00:15:23.319Z,19.48
2019-04-14T00:17:41.381Z,17.80
2019-04-14T00:20:10.402Z,19.02
2019-04-14T00:22:38.265Z,19.77
2019-04-14T00:25:06.542Z,18.10
2019-04-14T00:27:34.569Z,18.15
2019-04-14T00:30:03.363Z,19.77
2019-04-14T00:35:42.763Z,21.42
2019-04-14T00:38:30.253Z,18.65
2019-04-14T00:41:20.161Z,19.67
2019-04-14T00:44:07.845Z,19.87
2019-04-14T00:46:55.969Z,21.20
2019-04-14T00:49:24.687Z,20.55
2019-04-14T00:51:54.905Z,19.65
2019-04-14T00:54:23.956Z,22.32
2019-04-14T00:56:54.077Z,20.37
2019-04-14T00:59:22.966Z,23.95
2019-04-14T01:01:50.833Z,20.25
2019-04-14T01:07:28.525Z,21.45
2019-04-14T01:09:57.542Z,19.70
2019-04-14T01:15:02.967Z,19.17
2019-04-14T01:20:05.706Z,19.60
2019-04-14T01:22:37.996Z,19.23
2019-04-14T01:25:08.470Z,19.37
2019-04-14T01:27:38.409Z,20.43
2019-04-14T01:30:07.015Z,18.20
2019-04-14T01:35:29.301Z,16.65
2019-04-14T01:37:57.271Z,18.05
2019-04-14T01:40:25.237Z,17.37
2019-04-14T01:42:53.107Z,18.92
2019-04-14T01:45:21.126Z,17.52
2019-04-14T01:47:49.043Z,17.77
2019-04-14T01:53:25.089Z,18.27
2019-04-14T01:56:12.920Z,17.52
2019-04-14T01:58:46.673Z,16.27
2019-04-14T02:01:34.632Z,17.40
2019-04-14T02:04:03.006Z,17.65
2019-04-14T02:06:33.355Z,21.15
2019-04-14T02:09:03.207Z,19.12
2019-04-14T02:14:10.397Z,21.87
2019-04-14T02:16:44.696Z,19.75
2019-04-14T02:19:28.371Z,20.97
2019-04-14T02:22:16.055Z,21.70
2019-04-14T02:30:20.238Z,21.25
2019-04-14T02:33:18.116Z,18.17
2019-04-14T02:35:44.996Z,18.37
2019-04-14T02:40:43.814Z,19.48
2019-04-14T02:43:13.000Z,18.70
2019-04-14T02:45:57.801Z,18.25
2019-04-14T02:51:16.040Z,19.75
2019-04-14T02:53:44.367Z,17.62
2019-04-14T02:56:15.893Z,18.10
2019-04-14T02:58:44.505Z,18.80
2019-04-14T03:03:43.843Z,21.90
2019-04-14T03:11:38.099Z,18.80
2019-04-14T03:14:19.750Z,17.67
2019-04-14T03:22:38.922Z,18.85
2019-04-14T03:25:11.555Z,19.45
2019-04-14T03:27:54.724Z,16.40
2019-04-14T03:31:14.960Z,17.60
2019-04-14T03:33:48.553Z,16.62
2019-04-14T03:36:05.742Z,17.17
2019-04-14T03:40:39.619Z,14.83
2019-04-14T03:53:46.695Z,16.12
2019-04-14T03:56:26.987Z,15.70
2019-04-14T03:58:44.421Z,17.27
2019-04-14T04:01:13.349Z,17.00
2019-04-14T04:06:29.254Z,17.57
2019-04-14T04:08:57.978Z,15.83
2019-04-14T04:14:00.612Z,15.00
2019-04-14T04:16:48.361Z,17.35
2019-04-14T04:19:23.015Z,16.80
2019-04-14T04:22:11.039Z,18.25
2019-04-14T04:24:58.585Z,18.45
2019-04-14T04:27:44.048Z,16.25
2019-04-14T04:30:32.338Z,16.27
2019-04-14T04:33:19.898Z,16.75
2019-04-14T04:35:54.749Z,16.60
2019-04-14T04:38:42.053Z,17.42
2019-04-14T04:41:10.168Z,15.78
2019-04-14T04:43:38.806Z,15.43
2019-04-14T04:46:11.214Z,15.83
2019-04-14T04:48:39.772Z,16.10
2019-04-14T04:51:07.850Z,15.83
2019-04-14T04:53:35.890Z,15.20
2019-04-14T04:56:04.162Z,14.70
2019-04-14T04:58:32.751Z,15.63
2019-04-14T05:03:51.337Z,15.25
2019-04-14T05:09:33.801Z,13.20
2019-04-14T05:12:21.718Z,13.72
2019-04-14T05:17:45.259Z,14.68
2019-04-14T05:23:05.963Z,15.28
2019-04-14T05:25:36.497Z,17.12
2019-04-14T05:31:17.003Z,15.23
2019-04-14T05:33:44.907Z,14.53
2019-04-14T05:36:12.923Z,15.35
2019-04-14T05:38:41.011Z,14.45
2019-04-14T05:41:09.187Z,14.33
2019-04-14T05:43:47.300Z,14.50
2019-04-14T05:46:12.069Z,15.23
2019-04-14T05:48:42.427Z,15.32
2019-04-14T05:51:11.035Z,13.85
2019-04-14T05:53:41.485Z,15.55
2019-04-14T05:56:09.979Z,14.47
2019-04-14T05:58:38.282Z,13.70
2019-04-14T06:03:43.149Z,15.75
2019-04-14T06:06:11.725Z,14.60
2019-04-14T06:08:39.536Z,14.35
2019-04-14T06:11:07.471Z,16.02
2019-04-14T06:13:35.270Z,14.00
2019-04-14T06:16:03.102Z,13.70
2019-04-14T06:18:30.919Z,13.03
2019-04-14T06:20:58.853Z,14.75
2019-04-14T06:23:26.703Z,16.55
2019-04-14T06:25:54.564Z,13.90
2019-04-14T06:28:22.441Z,15.60
2019-04-14T06:34:15.089Z,15.08
2019-04-14T06:37:02.003Z,16.32
2019-04-14T06:39:32.861Z,15.20
2019-04-14T06:42:00.710Z,15.65
2019-04-14T06:44:28.533Z,14.60
2019-04-14T06:46:56.377Z,15.05
2019-04-14T06:49:24.264Z,15.15
2019-04-14T06:51:52.108Z,15.85
2019-04-14T06:54:19.960Z,15.63
2019-04-14T06:56:47.802Z,13.60
2019-04-14T06:59:15.626Z,16.07
2019-04-14T07:01:43.481Z,13.62
2019-04-14T07:04:11.329Z,13.55
2019-04-14T07:06:39.152Z,15.25
2019-04-14T07:09:07.149Z,14.20
2019-04-14T07:11:35.014Z,13.48
2019-04-14T07:14:02.904Z,13.40
2019-04-14T07:16:30.696Z,14.90
2019-04-14T07:18:58.545Z,14.65
2019-04-14T07:21:26.390Z,12.80
2019-04-14T07:23:54.262Z,13.88
2019-04-14T07:26:22.102Z,13.45
2019-04-14T07:28:57.268Z,15.03
2019-04-14T07:31:44.147Z,14.73
2019-04-14T07:34:30.975Z,13.35
2019-04-14T07:37:19.147Z,13.03
2019-04-14T07:40:06.466Z,12.45
2019-04-14T07:42:42.871Z,12.63
2019-04-14T07:45:30.033Z,14.20
2019-04-14T07:48:05.430Z,13.48
2019-04-14T07:50:52.267Z,12.68
2019-04-14T07:53:39.157Z,11.90
2019-04-14T07:56:26.041Z,12.43
2019-04-14T07:59:13.095Z,15.63
2019-04-14T08:01:59.987Z,12.35
2019-04-14T08:04:30.840Z,14.18
2019-04-14T08:06:59.690Z,12.37
2019-04-14T08:09:27.533Z,13.08
2019-04-14T08:11:55.728Z,12.18
2019-04-14T08:14:23.565Z,11.08
2019-04-14T08:16:51.441Z,12.20
2019-04-14T08:19:19.347Z,12.10
2019-04-14T08:21:47.182Z,12.30
2019-04-14T08:24:15.039Z,12.63
2019-04-14T08:26:42.876Z,11.93
2019-04-14T08:29:10.742Z,13.58
2019-04-14T08:31:38.615Z,12.10
2019-04-14T08:34:06.457Z,12.43
2019-04-14T08:36:34.314Z,11.53
2019-04-14T08:39:02.132Z,12.82
2019-04-14T08:44:26.764Z,11.48
2019-04-14T08:47:13.626Z,13.08
2019-04-14T08:49:48.999Z,12.15
2019-04-14T08:52:35.819Z,13.70
2019-04-14T08:55:12.796Z,12.25
2019-04-14T08:57:59.664Z,12.15
2019-04-14T09:00:42.858Z,10.60
2019-04-14T09:03:19.587Z,11.88
2019-04-14T09:05:54.839Z,11.90
2019-04-14T09:08:27.011Z,12.05
2019-04-14T09:10:58.219Z,11.70
2019-04-14T09:13:26.075Z,13.22
2019-04-14T09:15:53.903Z,18.98
2019-04-14T09:18:21.738Z,11.50
2019-04-14T09:20:52.590Z,11.38
2019-04-14T09:23:19.256Z,14.28
2019-04-14T09:25:47.154Z,13.32
2019-04-14T09:28:15.046Z,11.78
2019-04-14T09:30:42.865Z,13.50
2019-04-14T09:33:10.705Z,11.85
2019-04-14T09:35:38.561Z,11.83
2019-04-14T09:38:06.410Z,15.48
2019-04-14T09:40:34.441Z,12.05
2019-04-14T09:43:02.401Z,13.55
2019-04-14T09:45:30.235Z,12.93
2019-04-14T09:47:58.081Z,12.28
2019-04-14T09:50:25.925Z,12.13
2019-04-14T09:52:53.795Z,12.18
2019-04-14T09:55:23.483Z,12.47
2019-04-14T09:57:51.318Z,12.23
2019-04-14T10:00:19.257Z,12.75
2019-04-14T10:02:47.117Z,19.42
2019-04-14T10:05:14.978Z,11.83
2019-04-14T10:07:42.866Z,12.65
2019-04-14T10:10:10.850Z,13.38
2019-04-14T10:12:38.782Z,12.37
2019-04-14T10:15:06.874Z,13.70
2019-04-14T10:17:34.787Z,13.90
2019-04-14T10:20:02.851Z,12.82
2019-04-14T10:22:34.270Z,13.20
2019-04-14T10:25:00.363Z,12.78
2019-04-14T10:27:28.154Z,13.55
2019-04-14T10:29:56.017Z,12.20
2019-04-14T10:32:23.854Z,12.70
2019-04-14T10:34:51.728Z,13.50
2019-04-14T10:37:19.643Z,15.15
2019-04-14T10:39:47.526Z,12.95
2019-04-14T10:42:15.403Z,12.55
2019-04-14T10:44:43.250Z,13.18
2019-04-14T10:47:11.082Z,13.32
2019-04-14T10:49:38.983Z,12.90
2019-04-14T10:52:07.158Z,12.40
2019-04-14T10:54:35.002Z,12.13
2019-04-14T10:57:02.931Z,12.23
2019-04-14T10:59:30.806Z,11.88
2019-04-14T11:01:58.634Z,13.50
2019-04-14T11:04:26.523Z,13.08
2019-04-14T11:09:47.133Z,12.70
2019-04-14T11:12:14.997Z,13.20
2019-04-14T11:14:42.921Z,12.18
2019-04-14T11:17:10.750Z,12.23
2019-04-14T11:19:38.595Z,13.50
2019-04-14T11:22:06.485Z,12.60
2019-04-14T11:24:34.359Z,11.63
2019-04-14T11:27:02.235Z,12.88
2019-04-14T11:29:30.093Z,12.37
2019-04-14T11:32:16.975Z,11.65
2019-04-14T11:35:03.843Z,11.43
2019-04-14T11:37:50.766Z,12.93
2019-04-14T11:40:21.614Z,13.15
2019-04-14T11:42:52.458Z,13.35
2019-04-14T11:45:19.238Z,12.90
2019-04-14T11:47:47.164Z,14.65
2019-04-14T11:50:15.101Z,11.30
2019-04-14T11:52:42.998Z,11.80
2019-04-14T11:55:10.985Z,12.75
2019-04-14T11:57:38.854Z,13.60
2019-04-14T12:06:10.801Z,12.45
2019-04-14T12:08:52.934Z,11.63
2019-04-14T12:11:20.813Z,11.93
2019-04-14T12:13:48.670Z,13.15
2019-04-14T12:16:16.549Z,11.60
2019-04-14T12:18:44.650Z,13.30
2019-04-14T12:21:12.855Z,10.98
2019-04-14T12:23:40.774Z,11.03
2019-04-14T12:26:08.667Z,11.35
2019-04-14T12:28:36.540Z,11.97
2019-04-14T12:34:12.041Z,10.72
2019-04-14T12:36:40.078Z,11.85
2019-04-14T12:42:35.488Z,11.03
2019-04-14T12:48:16.669Z,12.90
2019-04-14T12:51:03.521Z,11.78
2019-04-14T12:53:31.392Z,13.53
2019-04-14T12:55:59.321Z,11.53
2019-04-14T12:58:46.246Z,10.72
2019-04-14T13:04:02.879Z,11.20
2019-04-14T13:06:30.718Z,12.05
2019-04-14T13:08:58.618Z,12.80
2019-04-14T13:11:26.481Z,11.25
2019-04-14T13:13:54.425Z,12.65
2019-04-14T13:16:22.520Z,11.78
2019-04-14T13:18:50.375Z,11.53
2019-04-14T13:21:18.654Z,11.60
2019-04-14T13:23:46.562Z,11.48
2019-04-14T13:26:14.378Z,11.12
2019-04-14T13:28:42.282Z,10.18
2019-04-14T13:31:10.133Z,11.50
2019-04-14T13:33:38.041Z,10.70
2019-04-14T13:36:05.870Z,10.58
2019-04-14T13:38:33.770Z,11.10
2019-04-14T13:41:01.645Z,10.03
2019-04-14T13:43:29.514Z,10.72
2019-04-14T13:45:59.817Z,11.18
2019-04-14T13:48:26.939Z,9.90
2019-04-14T13:50:55.017Z,10.15
2019-04-14T13:53:22.962Z,9.63
2019-04-14T13:55:50.873Z,10.15
2019-04-14T13:58:18.958Z,9.78
2019-04-14T14:00:46.859Z,10.48
2019-04-14T14:03:14.721Z,9.70
2019-04-14T14:05:43.822Z,17.87
2019-04-14T14:08:12.195Z,8.28
2019-04-14T14:10:40.083Z,9.30
2019-04-14T14:13:26.944Z,9.00
2019-04-14T14:16:16.130Z,8.68
2019-04-14T14:19:02.486Z,9.58
2019-04-14T14:21:49.365Z,10.30
2019-04-14T14:24:36.230Z,9.08
2019-04-14T14:29:38.902Z,8.63
2019-04-14T14:34:43.724Z,12.00
2019-04-14T14:37:11.685Z,9.33
2019-04-14T14:39:39.535Z,10.05
2019-04-14T14:42:07.413Z,8.70
2019-04-14T14:44:40.325Z,9.50
2019-04-14T14:47:27.192Z,9.50
2019-04-14T14:50:14.091Z,8.85
2019-04-14T14:52:42.051Z,10.35
2019-04-14T14:55:09.940Z,8.30
2019-04-14T14:57:37.845Z,12.73
2019-04-14T15:02:55.045Z,9.15
2019-04-14T15:05:22.918Z,9.75
2019-04-14T15:07:50.853Z,9.28
2019-04-14T15:10:18.720Z,8.45
2019-04-14T15:12:46.569Z,8.15
2019-04-14T15:15:14.462Z,10.15
2019-04-14T15:17:42.400Z,7.53
2019-04-14T15:20:10.430Z,10.70
2019-04-14T15:22:38.315Z,9.53
2019-04-14T15:25:06.205Z,10.23
2019-04-14T15:27:34.130Z,8.13
2019-04-14T15:30:02.000Z,9.75
2019-04-14T15:32:29.920Z,13.85
2019-04-14T15:34:57.802Z,10.72
2019-04-14T15:37:25.675Z,8.38
2019-04-14T15:39:53.572Z,8.95
2019-04-14T15:42:21.458Z,8.53
2019-04-14T15:44:49.305Z,8.85
2019-04-14T15:47:17.173Z,8.45
2019-04-14T15:49:45.098Z,8.90
2019-04-14T15:52:12.961Z,10.25
2019-04-14T15:54:40.859Z,9.15
2019-04-14T16:00:28.012Z,9.28
2019-04-14T16:03:15.074Z,8.05
2019-04-14T16:06:01.959Z,8.68
2019-04-14T16:08:48.934Z,8.40
2019-04-14T16:11:35.893Z,8.65
2019-04-14T16:14:12.206Z,9.78
2019-04-14T16:16:59.100Z,8.03
2019-04-14T16:19:45.953Z,8.85
2019-04-14T16:22:13.813Z,7.72
2019-04-14T16:24:41.697Z,9.40
2019-04-14T16:27:28.569Z,8.88
2019-04-14T16:30:15.528Z,7.75
2019-04-14T16:33:02.481Z,6.75
2019-04-14T16:35:30.626Z,7.90
2019-04-14T16:37:58.572Z,7.45
2019-04-14T16:40:26.447Z,8.03
2019-04-14T16:42:54.325Z,9.13
2019-04-14T16:45:22.292Z,7.40
2019-04-14T16:47:50.186Z,8.13
2019-04-14T16:50:18.055Z,7.85
2019-04-14T16:53:04.916Z,9.53
2019-04-14T16:55:51.782Z,8.40
2019-04-14T16:58:38.683Z,8.90
2019-04-14T17:03:51.735Z,6.25
2019-04-14T17:06:19.619Z,6.62
2019-04-14T17:08:47.492Z,6.30
2019-04-14T17:11:15.371Z,7.80
2019-04-14T17:16:54.387Z,10.15
2019-04-14T17:19:41.307Z,9.65
2019-04-14T17:22:28.829Z,7.83
2019-04-14T17:25:15.799Z,7.62
2019-04-14T17:28:02.671Z,7.80
2019-04-14T17:30:50.306Z,7.83
2019-04-14T17:33:37.154Z,8.03
2019-04-14T17:36:24.036Z,8.50
2019-04-14T17:39:11.025Z,8.70
2019-04-14T17:41:58.229Z,8.03
2019-04-14T17:44:31.592Z,7.95
2019-04-14T17:47:18.473Z,8.33
2019-04-14T17:50:05.374Z,8.08
2019-04-14T17:52:52.328Z,7.42
2019-04-14T17:55:49.390Z,7.78
2019-04-14T17:58:27.875Z,8.20
2019-04-14T18:01:04.900Z,7.42
2019-04-14T18:03:51.809Z,10.30
2019-04-14T18:06:38.782Z,8.10
2019-04-14T18:12:19.488Z,6.65
2019-04-14T18:18:15.990Z,7.45
2019-04-14T18:21:02.896Z,7.50
2019-04-14T18:23:30.928Z,6.30
2019-04-14T18:25:58.813Z,7.50
2019-04-14T18:28:45.768Z,7.83
2019-04-14T18:34:35.774Z,7.10
2019-04-14T18:37:19.512Z,6.00
2019-04-14T18:40:06.454Z,6.72
2019-04-14T18:42:53.389Z,6.90
2019-04-14T18:45:42.951Z,6.80
2019-04-14T18:48:30.243Z,7.22
2019-04-14T18:51:17.162Z,6.33
2019-04-14T18:54:05.105Z,6.97
2019-04-14T18:56:52.176Z,7.33
2019-04-14T18:59:58.515Z,7.55
2019-04-14T19:02:29.439Z,6.90
2019-04-14T19:07:50.318Z,7.90
2019-04-14T19:13:38.946Z,6.97
2019-04-14T19:16:38.161Z,7.40
2019-04-14T19:21:50.033Z,6.40
2019-04-14T19:24:18.343Z,5.75
2019-04-14T19:26:46.467Z,6.25
2019-04-14T19:29:14.500Z,6.08
2019-04-14T19:34:31.338Z,6.55
2019-04-14T19:36:59.656Z,6.75
2019-04-14T19:39:29.790Z,6.62
2019-04-14T19:42:17.122Z,7.30
2019-04-14T19:47:39.590Z,6.85
2019-04-14T19:50:07.996Z,6.10
2019-04-14T19:52:54.921Z,7.55
2019-04-14T19:55:23.284Z,7.10
2019-04-14T20:00:38.936Z,7.15
2019-04-14T20:03:06.943Z,7.62
2019-04-14T20:05:35.011Z,7.87
2019-04-14T20:11:30.112Z,7.67
2019-04-14T20:14:05.591Z,8.30
2019-04-14T20:16:52.529Z,8.18
2019-04-14T20:20:01.831Z,7.72
2019-04-14T20:25:33.144Z,8.43
2019-04-14T20:28:11.722Z,8.50
2019-04-14T20:31:00.983Z,7.55
2019-04-14T20:36:49.300Z,8.18
2019-04-14T20:39:17.422Z,9.40
2019-04-14T20:44:48.612Z,9.63
2019-04-14T20:47:16.968Z,9.18
2019-04-14T20:49:44.896Z,9.30
2019-04-14T20:52:12.897Z,9.95
2019-04-14T20:54:50.632Z,10.95
2019-04-14T20:57:20.917Z,9.28
2019-04-14T20:59:48.903Z,9.78
2019-04-14T21:02:35.873Z,9.43
2019-04-14T21:05:25.222Z,9.58
2019-04-14T21:08:12.168Z,10.72
2019-04-14T21:10:59.166Z,11.50
2019-04-14T21:13:46.395Z,10.28
2019-04-14T21:16:47.362Z,9.83
2019-04-14T21:19:21.996Z,10.32
2019-04-14T21:22:08.951Z,10.98
2019-04-14T21:24:57.942Z,11.78
2019-04-14T21:27:38.798Z,12.00
2019-04-14T21:30:26.072Z,11.43
2019-04-14T21:33:01.082Z,11.20
2019-04-14T21:35:49.761Z,11.53
2019-04-14T21:38:36.770Z,12.60
2019-04-14T21:41:10.146Z,12.75
2019-04-14T21:43:38.642Z,11.68
2019-04-14T21:46:25.705Z,11.70
2019-04-14T21:48:55.790Z,11.60
2019-04-14T21:53:59.933Z,13.15
2019-04-14T21:59:12.343Z,14.07
2019-04-14T22:01:59.366Z,16.00
2019-04-14T22:04:48.590Z,13.55
2019-04-14T22:07:35.879Z,13.65
2019-04-14T22:15:21.639Z,14.58
2019-04-14T22:17:49.598Z,13.20
2019-04-14T22:20:17.566Z,14.05
2019-04-14T22:22:45.485Z,14.58
2019-04-14T22:25:13.451Z,14.83
2019-04-14T22:27:42.094Z,14.13
2019-04-14T22:38:45.879Z,14.90
2019-04-14T22:41:32.877Z,14.43
2019-04-14T22:44:01.123Z,14.40
2019-04-14T22:49:23.507Z,15.53
2019-04-14T22:54:29.849Z,14.95
2019-04-14T22:56:57.846Z,15.43
2019-04-14T22:59:25.890Z,15.23
2019-04-14T23:02:01.420Z,16.60
2019-04-14T23:04:48.316Z,15.85
2019-04-14T23:07:35.222Z,15.20
2019-04-14T23:10:22.650Z,17.12
2019-04-14T23:13:04.191Z,16.27
2019-04-14T23:15:51.355Z,16.07
2019-04-14T23:18:40.665Z,17.12
2019-04-14T23:21:28.478Z,18.10
2019-04-14T23:24:16.240Z,16.65
2019-04-14T23:26:52.233Z,17.12
2019-04-14T23:29:13.983Z,16.62
2019-04-14T23:31:42.074Z,15.70
2019-04-14T23:34:10.251Z,15.83
2019-04-14T23:37:00.963Z,17.50
2019-04-14T23:39:27.413Z,17.25
2019-04-14T23:44:48.488Z,16.10
2019-04-14T23:47:16.821Z,16.70
2019-04-14T23:49:44.831Z,16.90
2019-04-14T23:52:12.881Z,17.40
2019-04-14T23:54:40.903Z,18.42
2019-04-14T23:57:12.737Z,19.87
2019-04-14T23:59:40.786Z,19.30
